Time;durP1;ratioP1;P1;durP2;ratioP2;P2;SDS_P1;SDS_P2;PMS_P1;PMS_P2;Temp;Humidity;BMP_temperature;BMP_pressure;BME280_temperature;BME280_humidity;BME280_pressure;Samples;Min_cycle;Max_cycle;Signal;HPM_P1;HPM_P2
2021/11/24 00:00:36;;;;;;;37.53;18.60;;;;;;;;;;5020686;28;20189;-51
2021/11/24 00:03:03;;;;;;;42.17;18.33;;;;;;;;;;5024872;28;20208;-50
2021/11/24 00:05:29;;;;;;;39.30;18.57;;;;;;;;;;5010261;28;20204;-52
2021/11/24 00:07:55;;;;;;;35.03;18.00;;;;;;;;;;5009342;28;20196;-52
2021/11/24 00:10:22;;;;;;;39.30;18.80;;;;;;;;;;5027141;28;20182;-54
2021/11/24 00:12:51;;;;;;;37.97;18.37;;;;;;;;;;5014845;28;20208;-50
2021/11/24 00:15:18;;;;;;;39.80;18.70;;;;;;;;;;5025918;28;20697;-50
2021/11/24 00:17:44;;;;;;;37.83;17.57;;;;;;;;;;5025799;28;20607;-51
2021/11/24 00:20:10;;;;;;;38.47;20.30;;;;;;;;;;5028783;28;20415;-52
2021/11/24 00:22:37;;;;;;;36.90;18.07;;;;;;;;;;5025099;28;20204;-51
2021/11/24 00:25:04;;;;;;;40.07;19.03;;;;;;;;;;5028102;28;20559;-51
2021/11/24 00:27:31;;;;;;;41.30;18.07;;;;;;;;;;5007213;28;20623;-54
2021/11/24 00:29:57;;;;;;;42.87;17.33;;;;;;;;;;5043980;28;20169;-53
2021/11/24 00:32:23;;;;;;;39.73;17.83;;;;;;;;;;5028226;28;20236;-54
2021/11/24 00:34:49;;;;;;;37.20;17.67;;;;;;;;;;5020088;28;20697;-52
2021/11/24 00:37:16;;;;;;;37.33;17.13;;;;;;;;;;5031639;28;20185;-54
2021/11/24 00:39:45;;;;;;;36.37;17.47;;;;;;;;;;5012883;28;20657;-51
2021/11/24 00:42:11;;;;;;;40.47;18.33;;;;;;;;;;5007470;28;20204;-52
2021/11/24 00:44:37;;;;;;;38.90;18.07;;;;;;;;;;5011372;28;20186;-51
2021/11/24 00:47:04;;;;;;;40.67;18.17;;;;;;;;;;5027682;28;20181;-51
2021/11/24 00:49:34;;;;;;;36.83;17.40;;;;;;;;;;5014504;28;20181;-51
2021/11/24 00:52:00;;;;;;;40.87;19.30;;;;;;;;;;5012635;28;20181;-52
2021/11/24 00:54:26;;;;;;;43.20;18.07;;;;;;;;;;5031813;28;20192;-53
2021/11/24 00:56:52;;;;;;;39.17;18.03;;;;;;;;;;5031728;28;20221;-51
2021/11/24 00:59:22;;;;;;;43.63;19.27;;;;;;;;;;5030043;28;20574;-51
2021/11/24 01:01:48;;;;;;;39.63;18.83;;;;;;;;;;5011818;28;20651;-51
2021/11/24 01:04:14;;;;;;;38.23;17.63;;;;;;;;;;5013837;28;20189;-52
2021/11/24 01:06:40;;;;;;;39.97;18.37;;;;;;;;;;5030839;28;20182;-52
2021/11/24 01:09:06;;;;;;;40.40;19.40;;;;;;;;;;5010537;28;20319;-54
2021/11/24 01:11:33;;;;;;;36.83;16.90;;;;;;;;;;5025261;28;20232;-52
2021/11/24 01:14:00;;;;;;;43.00;18.93;;;;;;;;;;5031323;28;20185;-52
2021/11/24 01:16:26;;;;;;;41.07;18.97;;;;;;;;;;5010212;28;20657;-53
2021/11/24 01:18:52;;;;;;;45.03;19.23;;;;;;;;;;5019138;28;20646;-52
2021/11/24 01:21:19;;;;;;;39.30;20.30;;;;;;;;;;5013057;28;20836;-52
2021/11/24 01:23:46;;;;;;;40.57;18.73;;;;;;;;;;5025436;28;20530;-52
2021/11/24 01:26:13;;;;;;;39.80;19.30;;;;;;;;;;5007931;28;20193;-52
2021/11/24 01:28:39;;;;;;;41.33;18.73;;;;;;;;;;5009412;28;20204;-52
2021/11/24 01:31:06;;;;;;;47.10;19.10;;;;;;;;;;5024065;28;20194;-53
2021/11/24 01:33:32;;;;;;;40.10;18.13;;;;;;;;;;5014169;28;20229;-52
2021/11/24 01:35:58;;;;;;;45.53;19.83;;;;;;;;;;5029815;28;20186;-52
2021/11/24 01:38:26;;;;;;;50.07;21.70;;;;;;;;;;5027808;28;20204;-52
2021/11/24 01:40:56;;;;;;;42.30;19.60;;;;;;;;;;5009126;28;20220;-53
2021/11/24 01:43:22;;;;;;;47.63;20.63;;;;;;;;;;5025838;28;20272;-54
2021/11/24 01:45:48;;;;;;;47.80;20.57;;;;;;;;;;5006040;28;20186;-54
2021/11/24 01:48:15;;;;;;;49.07;21.10;;;;;;;;;;5029495;28;20228;-52
2021/11/24 01:50:41;;;;;;;43.67;20.23;;;;;;;;;;5011166;28;20909;-52
2021/11/24 01:53:08;;;;;;;48.97;20.20;;;;;;;;;;4996703;28;20218;-53
2021/11/24 01:55:34;;;;;;;48.47;20.90;;;;;;;;;;5012540;28;20668;-52
2021/11/24 01:58:01;;;;;;;46.13;20.03;;;;;;;;;;5013865;28;20186;-52
2021/11/24 02:00:30;;;;;;;44.03;20.87;;;;;;;;;;5009805;28;20196;-54
2021/11/24 02:02:56;;;;;;;50.43;22.53;;;;;;;;;;5020792;28;20201;-52
2021/11/24 02:05:23;;;;;;;44.70;21.03;;;;;;;;;;5011751;28;20664;-53
2021/11/24 02:07:50;;;;;;;44.87;18.80;;;;;;;;;;5028232;28;20200;-52
2021/11/24 02:10:16;;;;;;;43.03;20.10;;;;;;;;;;5028636;28;20235;-52
2021/11/24 02:12:42;;;;;;;41.83;19.87;;;;;;;;;;5027214;28;20680;-53
2021/11/24 02:15:09;;;;;;;49.47;20.83;;;;;;;;;;5028617;28;20182;-51
2021/11/24 02:17:36;;;;;;;42.70;20.93;;;;;;;;;;5027658;28;20236;-52
2021/11/24 02:20:02;;;;;;;47.90;20.57;;;;;;;;;;5028313;28;20224;-54
2021/11/24 02:22:32;;;;;;;46.07;21.30;;;;;;;;;;5026288;28;20728;-53
2021/11/24 02:24:58;;;;;;;51.13;21.07;;;;;;;;;;5027138;28;20517;-55
2021/11/24 02:27:24;;;;;;;45.37;20.03;;;;;;;;;;5014687;28;20249;-52
2021/11/24 02:29:51;;;;;;;46.03;20.63;;;;;;;;;;5026650;28;20177;-52
2021/11/24 02:32:17;;;;;;;50.90;21.43;;;;;;;;;;5021948;28;20243;-55
2021/11/24 02:34:44;;;;;;;47.10;20.70;;;;;;;;;;5023306;28;20628;-53
2021/11/24 02:37:10;;;;;;;47.30;20.37;;;;;;;;;;5029130;28;20217;-52
2021/11/24 02:39:36;;;;;;;47.40;20.17;;;;;;;;;;5022874;28;20186;-54
2021/11/24 02:42:03;;;;;;;47.73;20.43;;;;;;;;;;5004561;28;20209;-54
2021/11/24 02:44:32;;;;;;;45.77;19.77;;;;;;;;;;5020971;28;20192;-54
2021/11/24 02:47:09;;;;;;;50.27;21.50;;;;;;;;;;5015280;28;20182;-54
2021/11/24 02:49:39;;;;;;;45.37;19.83;;;;;;;;;;4983426;28;20190;-53
2021/11/24 02:52:05;;;;;;;49.53;20.40;;;;;;;;;;5005796;28;20229;-52
2021/11/24 02:54:32;;;;;;;47.23;19.93;;;;;;;;;;4985907;28;20245;-54
2021/11/24 02:57:01;;;;;;;50.70;21.43;;;;;;;;;;5002236;28;20210;-54
2021/11/24 02:59:27;;;;;;;46.83;21.37;;;;;;;;;;4986143;28;20193;-52
2021/11/24 03:01:54;;;;;;;52.07;20.30;;;;;;;;;;5007901;28;20214;-53
2021/11/24 03:04:23;;;;;;;49.53;22.37;;;;;;;;;;4975494;28;20189;-53
2021/11/24 03:06:50;;;;;;;43.83;20.43;;;;;;;;;;4982316;28;20183;-52
2021/11/24 03:09:16;;;;;;;47.70;20.20;;;;;;;;;;4989150;28;20187;-52
2021/11/24 03:11:42;;;;;;;45.20;19.97;;;;;;;;;;5007657;28;20179;-52
2021/11/24 03:14:08;;;;;;;56.10;21.47;;;;;;;;;;5000015;28;20277;-54
2021/11/24 03:16:35;;;;;;;46.83;20.97;;;;;;;;;;5007835;28;20241;-53
2021/11/24 03:19:01;;;;;;;44.00;20.00;;;;;;;;;;4992734;28;20194;-53
2021/11/24 03:21:30;;;;;;;49.33;20.60;;;;;;;;;;4990272;28;20208;-52
2021/11/24 03:23:56;;;;;;;47.20;21.07;;;;;;;;;;4988382;28;20241;-51
2021/11/24 03:26:22;;;;;;;45.97;21.87;;;;;;;;;;4991632;28;20274;-50
2021/11/24 03:28:48;;;;;;;45.27;21.30;;;;;;;;;;5008677;28;20296;-51
2021/11/24 03:31:15;;;;;;;52.40;23.27;;;;;;;;;;5006097;28;20468;-53
2021/11/24 03:33:41;;;;;;;52.00;21.40;;;;;;;;;;5007021;28;20178;-52
2021/11/24 03:36:07;;;;;;;52.37;23.20;;;;;;;;;;4990852;28;20193;-53
2021/11/24 03:38:33;;;;;;;56.67;23.67;;;;;;;;;;5005818;28;20269;-50
2021/11/24 03:41:02;;;;;;;50.67;22.17;;;;;;;;;;5008746;28;20178;-53
2021/11/24 03:43:31;;;;;;;51.73;21.30;;;;;;;;;;5001365;28;20205;-52
2021/11/24 03:45:57;;;;;;;58.47;23.17;;;;;;;;;;5005582;28;20179;-54
2021/11/24 03:48:23;;;;;;;58.87;24.07;;;;;;;;;;5018928;28;20692;-53
2021/11/24 03:50:50;;;;;;;48.73;21.47;;;;;;;;;;5006923;28;20185;-53
2021/11/24 03:53:16;;;;;;;61.40;22.87;;;;;;;;;;5008623;28;20247;-52
2021/11/24 03:55:42;;;;;;;50.43;21.10;;;;;;;;;;5006863;28;20305;-53
2021/11/24 03:58:09;;;;;;;59.70;23.27;;;;;;;;;;5018322;28;20186;-52
2021/11/24 04:00:35;;;;;;;55.90;22.93;;;;;;;;;;5008211;28;20755;-53
2021/11/24 04:03:02;;;;;;;49.20;22.30;;;;;;;;;;5003974;28;20323;-53
2021/11/24 04:05:28;;;;;;;62.43;23.93;;;;;;;;;;5009437;28;20196;-52
2021/11/24 04:07:55;;;;;;;62.27;23.10;;;;;;;;;;5025621;28;20182;-53
2021/11/24 04:10:21;;;;;;;61.97;23.50;;;;;;;;;;5010856;28;20268;-53
2021/11/24 04:12:47;;;;;;;54.73;22.90;;;;;;;;;;5025398;28;20189;-52
2021/11/24 04:15:15;;;;;;;57.13;23.43;;;;;;;;;;5027146;28;20180;-52
2021/11/24 04:17:41;;;;;;;49.50;21.93;;;;;;;;;;5026712;28;20185;-54
2021/11/24 04:20:09;;;;;;;53.07;23.40;;;;;;;;;;5008768;28;20217;-53
2021/11/24 04:22:35;;;;;;;57.90;24.83;;;;;;;;;;5008634;28;20678;-54
2021/11/24 04:25:02;;;;;;;70.30;24.37;;;;;;;;;;5009285;28;20225;-52
2021/11/24 04:27:28;;;;;;;53.87;22.67;;;;;;;;;;5026151;28;20185;-52
2021/11/24 04:29:55;;;;;;;55.10;23.13;;;;;;;;;;5009249;28;21050;-52
2021/11/24 04:32:21;;;;;;;57.03;23.33;;;;;;;;;;5006139;28;20544;-52
2021/11/24 04:34:47;;;;;;;64.47;23.97;;;;;;;;;;5009222;28;20188;-52
2021/11/24 04:37:14;;;;;;;59.40;23.77;;;;;;;;;;5027839;28;20185;-51
2021/11/24 04:39:40;;;;;;;57.50;23.50;;;;;;;;;;5024369;28;20216;-53
2021/11/24 04:42:06;;;;;;;59.60;24.57;;;;;;;;;;5006393;28;20209;-53
2021/11/24 04:44:33;;;;;;;59.07;23.33;;;;;;;;;;5025778;28;20235;-53
2021/11/24 04:46:59;;;;;;;54.13;21.30;;;;;;;;;;5008124;28;20188;-53
2021/11/24 04:49:25;;;;;;;59.57;23.10;;;;;;;;;;5007327;28;20240;-54
2021/11/24 04:51:51;;;;;;;53.57;22.00;;;;;;;;;;5023462;28;20178;-52
2021/11/24 04:54:17;;;;;;;56.10;21.90;;;;;;;;;;5023560;28;20182;-53
2021/11/24 04:56:44;;;;;;;56.37;23.60;;;;;;;;;;5025553;28;20301;-51
2021/11/24 04:59:10;;;;;;;67.33;22.93;;;;;;;;;;5031204;28;20205;-54
2021/11/24 05:01:36;;;;;;;65.50;25.00;;;;;;;;;;5019591;28;20248;-52
2021/11/24 05:04:03;;;;;;;55.77;23.07;;;;;;;;;;5018415;28;20190;-52
2021/11/24 05:06:29;;;;;;;50.87;22.77;;;;;;;;;;5007996;28;20656;-52
2021/11/24 05:08:56;;;;;;;59.37;23.47;;;;;;;;;;5019662;28;20574;-54
2021/11/24 05:11:22;;;;;;;59.33;22.70;;;;;;;;;;5022931;28;20185;-52
2021/11/24 05:13:52;;;;;;;57.07;22.30;;;;;;;;;;5006619;28;20182;-52
2021/11/24 05:16:23;;;;;;;49.77;20.63;;;;;;;;;;5025043;28;20189;-53
2021/11/24 05:18:49;;;;;;;54.37;22.17;;;;;;;;;;5031196;28;20722;-53
2021/11/24 05:23:46;;;;;;;59.50;24.20;;;;;;;;;;5023980;28;20174;-53
2021/11/24 05:26:12;;;;;;;56.00;22.33;;;;;;;;;;5024998;28;20533;-52
2021/11/24 05:28:39;;;;;;;57.80;22.50;;;;;;;;;;5021977;28;20182;-54
2021/11/24 05:31:06;;;;;;;53.27;22.60;;;;;;;;;;5019595;28;20186;-52
2021/11/24 05:33:32;;;;;;;65.10;25.20;;;;;;;;;;5004290;28;20182;-53
2021/11/24 05:35:59;;;;;;;58.53;23.27;;;;;;;;;;5012012;28;20177;-52
2021/11/24 05:38:25;;;;;;;60.93;23.57;;;;;;;;;;5024371;28;20228;-52
2021/11/24 05:40:51;;;;;;;58.47;22.73;;;;;;;;;;5021523;28;20178;-54
2021/11/24 05:43:22;;;;;;;53.10;23.23;;;;;;;;;;5023719;28;20541;-52
2021/11/24 05:46:10;;;;;;;51.03;22.30;;;;;;;;;;5012705;28;20186;-53
2021/11/24 05:48:34;;;;;;;59.40;23.57;;;;;;;;;;5029151;28;20217;-51
2021/11/24 05:51:00;;;;;;;52.30;21.53;;;;;;;;;;5028985;28;20189;-51
2021/11/24 05:53:27;;;;;;;51.30;21.23;;;;;;;;;;5006888;28;20642;-54
2021/11/24 05:55:53;;;;;;;56.57;21.83;;;;;;;;;;5022244;28;20205;-52
2021/11/24 05:58:21;;;;;;;55.77;22.27;;;;;;;;;;5025073;28;20177;-55
2021/11/24 06:00:47;;;;;;;52.10;21.03;;;;;;;;;;5019219;28;20194;-53
2021/11/24 06:03:14;;;;;;;50.50;22.20;;;;;;;;;;5013972;28;20666;-54
2021/11/24 06:05:40;;;;;;;49.43;21.93;;;;;;;;;;5020808;28;20184;-53
2021/11/24 06:08:07;;;;;;;45.57;20.13;;;;;;;;;;5019118;28;20918;-53
2021/11/24 06:10:33;;;;;;;48.07;23.13;;;;;;;;;;5025155;28;20441;-53
2021/11/24 06:12:59;;;;;;;55.17;21.90;;;;;;;;;;5020004;28;20650;-52
2021/11/24 06:15:25;;;;;;;55.40;23.27;;;;;;;;;;5024292;28;20178;-52
2021/11/24 06:17:51;;;;;;;59.47;24.50;;;;;;;;;;5019090;28;20616;-52
2021/11/24 06:20:18;;;;;;;58.37;22.63;;;;;;;;;;5020459;28;20571;-51
2021/11/24 06:22:45;;;;;;;53.20;22.63;;;;;;;;;;5004130;28;20545;-52
2021/11/24 06:25:12;;;;;;;66.37;22.90;;;;;;;;;;5003719;28;20189;-51
2021/11/24 06:27:41;;;;;;;59.47;23.60;;;;;;;;;;5003015;28;20534;-53
2021/11/24 06:30:07;;;;;;;59.70;24.10;;;;;;;;;;5002662;28;20182;-54
2021/11/24 06:32:33;;;;;;;60.60;23.20;;;;;;;;;;5020286;28;20193;-53
2021/11/24 06:35:00;;;;;;;61.80;24.73;;;;;;;;;;5003597;28;20213;-51
2021/11/24 06:37:26;;;;;;;55.10;23.20;;;;;;;;;;5004019;28;20672;-54
2021/11/24 06:39:53;;;;;;;54.63;22.47;;;;;;;;;;5022067;28;20189;-53
2021/11/24 06:42:19;;;;;;;67.07;24.73;;;;;;;;;;5020621;28;20245;-52
2021/11/24 06:44:45;;;;;;;54.93;23.03;;;;;;;;;;5005898;28;20240;-52
2021/11/24 06:47:13;;;;;;;61.00;23.57;;;;;;;;;;5026464;28;20170;-52
2021/11/24 06:49:40;;;;;;;57.60;24.13;;;;;;;;;;5007307;28;20193;-52
2021/11/24 06:52:06;;;;;;;58.87;23.77;;;;;;;;;;5027243;28;20252;-53
2021/11/24 06:54:32;;;;;;;55.70;23.03;;;;;;;;;;5023280;28;20645;-53
2021/11/24 06:56:59;;;;;;;53.17;21.80;;;;;;;;;;5026705;28;20206;-51
2021/11/24 06:59:25;;;;;;;60.30;23.07;;;;;;;;;;5029472;28;20719;-52
2021/11/24 07:01:51;;;;;;;55.33;23.20;;;;;;;;;;5009292;28;20462;-52
2021/11/24 07:04:17;;;;;;;51.63;23.40;;;;;;;;;;5010638;28;20186;-53
2021/11/24 07:06:44;;;;;;;55.93;23.13;;;;;;;;;;5024401;28;20178;-52
2021/11/24 07:09:11;;;;;;;63.53;24.10;;;;;;;;;;5029242;28;20255;-52
2021/11/24 07:11:38;;;;;;;59.47;22.67;;;;;;;;;;5001757;28;20178;-51
2021/11/24 07:14:04;;;;;;;54.57;22.63;;;;;;;;;;4997010;28;20186;-52
2021/11/24 07:16:30;;;;;;;58.57;23.43;;;;;;;;;;5025909;28;20210;-52
2021/11/24 07:18:56;;;;;;;63.97;22.60;;;;;;;;;;4999025;28;20201;-52
2021/11/24 07:21:23;;;;;;;63.70;23.30;;;;;;;;;;5028954;28;20229;-53
2021/11/24 07:23:49;;;;;;;55.57;21.73;;;;;;;;;;5019771;28;20179;-51
2021/11/24 07:26:15;;;;;;;57.27;22.33;;;;;;;;;;5007158;28;20645;-52
2021/11/24 07:28:42;;;;;;;56.63;21.20;;;;;;;;;;5022171;28;20171;-52
2021/11/24 07:31:08;;;;;;;61.87;24.10;;;;;;;;;;4990566;28;20513;-52
2021/11/24 07:33:34;;;;;;;54.33;21.73;;;;;;;;;;5023239;28;20192;-52
2021/11/24 07:36:00;;;;;;;57.47;23.80;;;;;;;;;;5028669;28;20178;-52
2021/11/24 07:38:26;;;;;;;56.40;23.07;;;;;;;;;;5029320;28;20185;-54
2021/11/24 07:40:52;;;;;;;62.87;23.97;;;;;;;;;;5028915;28;20210;-52
2021/11/24 07:43:19;;;;;;;52.27;21.97;;;;;;;;;;5027273;28;20212;-52
2021/11/24 07:45:45;;;;;;;45.30;19.90;;;;;;;;;;5026796;28;20203;-52
2021/11/24 07:48:12;;;;;;;56.23;21.50;;;;;;;;;;5009638;28;20222;-50
2021/11/24 07:50:38;;;;;;;57.07;23.30;;;;;;;;;;5029546;28;20594;-51
2021/11/24 07:53:04;;;;;;;54.10;22.47;;;;;;;;;;5039603;28;20235;-51
2021/11/24 07:55:30;;;;;;;59.17;23.10;;;;;;;;;;5028593;28;20703;-51
2021/11/24 07:57:57;;;;;;;56.20;22.43;;;;;;;;;;5028911;28;20300;-52
2021/11/24 08:00:23;;;;;;;59.03;23.73;;;;;;;;;;5010440;28;20980;-52
2021/11/24 08:02:49;;;;;;;55.83;22.57;;;;;;;;;;5027904;28;20680;-53
2021/11/24 08:05:15;;;;;;;54.03;21.57;;;;;;;;;;5028808;28;20556;-52
2021/11/24 08:07:41;;;;;;;49.80;20.37;;;;;;;;;;5026971;28;20616;-54
2021/11/24 08:10:10;;;;;;;53.87;21.90;;;;;;;;;;5018058;28;20178;-53
2021/11/24 08:12:36;;;;;;;52.27;20.37;;;;;;;;;;4996289;28;20276;-52
2021/11/24 08:15:03;;;;;;;58.03;22.40;;;;;;;;;;5027864;28;20268;-52
2021/11/24 08:17:29;;;;;;;54.70;21.87;;;;;;;;;;5010107;28;20208;-52
2021/11/24 08:19:56;;;;;;;53.73;22.40;;;;;;;;;;5027696;28;20661;-52
2021/11/24 08:22:24;;;;;;;48.30;18.83;;;;;;;;;;5028319;28;20208;-52
2021/11/24 08:24:50;;;;;;;53.30;21.03;;;;;;;;;;5028240;28;20182;-53
2021/11/24 08:27:16;;;;;;;59.77;21.17;;;;;;;;;;5028103;28;20182;-52
2021/11/24 08:29:42;;;;;;;47.73;20.57;;;;;;;;;;5027487;28;20231;-52
2021/11/24 08:32:08;;;;;;;53.40;19.50;;;;;;;;;;5027972;28;20170;-52
2021/11/24 08:34:34;;;;;;;65.83;22.23;;;;;;;;;;5028313;28;20193;-53
2021/11/24 08:37:01;;;;;;;71.53;23.83;;;;;;;;;;5021076;28;20556;-53
2021/11/24 08:39:27;;;;;;;62.73;23.90;;;;;;;;;;5014594;28;20186;-53
2021/11/24 08:41:54;;;;;;;73.87;25.50;;;;;;;;;;5024223;28;20300;-53
2021/11/24 08:44:20;;;;;;;84.23;29.23;;;;;;;;;;5019501;28;20637;-54
2021/11/24 08:46:46;;;;;;;87.47;28.87;;;;;;;;;;5027284;28;20182;-54
2021/11/24 08:49:12;;;;;;;87.40;27.70;;;;;;;;;;5027474;28;20221;-53
2021/11/24 08:51:39;;;;;;;101.13;29.30;;;;;;;;;;5010879;28;20189;-52
2021/11/24 08:54:07;;;;;;;86.93;28.63;;;;;;;;;;5014071;28;20276;-54
2021/11/24 08:56:35;;;;;;;76.43;27.40;;;;;;;;;;5030358;28;20292;-54
2021/11/24 08:59:04;;;;;;;78.87;28.37;;;;;;;;;;5031869;28;20655;-53
2021/11/24 09:01:30;;;;;;;83.87;28.80;;;;;;;;;;5029888;28;20259;-53
2021/11/24 09:03:57;;;;;;;80.90;28.47;;;;;;;;;;5014347;28;20702;-53
2021/11/24 09:06:23;;;;;;;89.60;30.13;;;;;;;;;;5013945;28;20204;-53
2021/11/24 09:08:49;;;;;;;86.73;27.40;;;;;;;;;;5014141;28;20608;-54
2021/11/24 09:11:15;;;;;;;83.13;29.53;;;;;;;;;;5031529;28;20262;-53
2021/11/24 09:13:41;;;;;;;77.63;26.93;;;;;;;;;;5032088;28;20551;-53
2021/11/24 09:16:08;;;;;;;85.20;28.13;;;;;;;;;;5012315;28;20190;-53
2021/11/24 09:18:34;;;;;;;72.47;28.43;;;;;;;;;;5031791;28;20181;-55
2021/11/24 09:21:00;;;;;;;74.53;26.57;;;;;;;;;;5013754;28;20240;-54
2021/11/24 09:23:28;;;;;;;74.83;27.20;;;;;;;;;;5031240;28;20209;-53
2021/11/24 09:26:02;;;;;;;73.63;27.10;;;;;;;;;;5013397;28;20212;-53
2021/11/24 09:28:31;;;;;;;78.97;27.73;;;;;;;;;;5031556;28;20510;-53
2021/11/24 09:30:58;;;;;;;76.47;27.43;;;;;;;;;;5029512;28;20186;-54
2021/11/24 09:33:24;;;;;;;69.67;26.93;;;;;;;;;;5012906;28;20243;-53
2021/11/24 09:35:51;;;;;;;69.80;26.23;;;;;;;;;;5031096;28;20285;-54
2021/11/24 09:38:17;;;;;;;70.07;25.10;;;;;;;;;;5013575;28;20178;-53
2021/11/24 09:40:43;;;;;;;60.10;24.80;;;;;;;;;;4996916;28;20192;-53
2021/11/24 09:43:11;;;;;;;65.40;25.07;;;;;;;;;;5012692;28;20247;-54
2021/11/24 09:45:38;;;;;;;54.33;22.93;;;;;;;;;;5030712;28;20366;-53
2021/11/24 09:48:05;;;;;;;52.43;23.50;;;;;;;;;;5029965;28;20221;-53
2021/11/24 09:50:33;;;;;;;48.27;20.60;;;;;;;;;;5029794;28;20214;-53
2021/11/24 09:53:00;;;;;;;50.87;21.50;;;;;;;;;;5012842;28;20703;-53
2021/11/24 09:55:28;;;;;;;49.27;23.13;;;;;;;;;;5030499;28;20188;-52
2021/11/24 09:57:55;;;;;;;44.40;20.33;;;;;;;;;;5025057;28;20573;-53
2021/11/24 10:00:22;;;;;;;49.67;19.93;;;;;;;;;;5012200;28;20613;-53
2021/11/24 10:02:48;;;;;;;39.27;20.80;;;;;;;;;;5028755;28;20601;-53
2021/11/24 10:05:17;;;;;;;42.43;20.70;;;;;;;;;;5013000;28;20166;-53
2021/11/24 10:07:45;;;;;;;41.17;19.83;;;;;;;;;;5011196;28;20204;-52
2021/11/24 10:10:11;;;;;;;39.73;20.20;;;;;;;;;;5013594;28;20186;-54
2021/11/24 10:12:37;;;;;;;43.97;20.90;;;;;;;;;;5012982;28;20182;-53
2021/11/24 10:15:05;;;;;;;42.27;20.03;;;;;;;;;;5030503;28;20186;-53
2021/11/24 10:17:31;;;;;;;39.87;19.07;;;;;;;;;;5011571;28;20190;-54
2021/11/24 10:20:01;;;;;;;41.37;20.53;;;;;;;;;;5030570;28;20663;-53
2021/11/24 10:22:28;;;;;;;37.33;19.23;;;;;;;;;;5030324;28;20323;-53
2021/11/24 10:25:02;;;;;;;42.93;20.30;;;;;;;;;;5030269;28;20244;-54
2021/11/24 10:27:39;;;;;;;40.87;19.43;;;;;;;;;;5029163;28;20231;-53
2021/11/24 10:30:06;;;;;;;45.10;21.93;;;;;;;;;;5029922;28;20556;-53
2021/11/24 10:32:33;;;;;;;38.60;20.23;;;;;;;;;;5029428;28;20225;-54
2021/11/24 10:34:59;;;;;;;44.77;20.17;;;;;;;;;;5012571;28;20182;-54
2021/11/24 10:37:26;;;;;;;39.73;17.33;;;;;;;;;;5015145;28;20296;-54
2021/11/24 10:39:56;;;;;;;37.23;19.10;;;;;;;;;;5029444;28;20178;-55
2021/11/24 10:42:29;;;;;;;39.23;19.53;;;;;;;;;;5003993;28;20308;-54
2021/11/24 10:45:00;;;;;;;44.33;20.80;;;;;;;;;;5012038;28;20188;-54
2021/11/24 10:47:27;;;;;;;41.20;20.07;;;;;;;;;;5011062;28;20188;-54
2021/11/24 10:49:54;;;;;;;44.50;20.63;;;;;;;;;;5011668;28;20186;-54
2021/11/24 10:52:25;;;;;;;36.97;18.50;;;;;;;;;;5011181;28;20186;-54
2021/11/24 10:55:01;;;;;;;43.77;21.67;;;;;;;;;;5011870;28;20669;-55
2021/11/24 10:57:27;;;;;;;46.33;21.70;;;;;;;;;;5028829;28;20201;-54
2021/11/24 10:59:58;;;;;;;40.20;20.67;;;;;;;;;;5028454;28;20720;-56
2021/11/24 11:02:26;;;;;;;40.87;19.67;;;;;;;;;;5028751;28;20255;-55
2021/11/24 11:05:02;;;;;;;42.90;20.77;;;;;;;;;;5029631;28;20228;-54
2021/11/24 11:07:31;;;;;;;38.03;18.97;;;;;;;;;;5028665;28;20236;-53
2021/11/24 11:10:11;;;;;;;41.43;20.50;;;;;;;;;;5028980;28;20177;-53
2021/11/24 11:12:38;;;;;;;40.20;19.83;;;;;;;;;;5029519;28;20186;-54
2021/11/24 11:15:31;;;;;;;38.50;19.70;;;;;;;;;;5025894;28;20780;-53
2021/11/24 11:17:58;;;;;;;35.00;20.17;;;;;;;;;;5006602;28;20194;-54
2021/11/24 11:20:26;;;;;;;45.33;21.23;;;;;;;;;;5010003;28;20186;-53
2021/11/24 11:22:53;;;;;;;42.63;20.17;;;;;;;;;;5019741;28;20205;-54
2021/11/24 11:25:19;;;;;;;38.17;19.50;;;;;;;;;;5011331;28;20180;-53
2021/11/24 11:27:46;;;;;;;41.73;19.93;;;;;;;;;;5027220;28;20181;-53
2021/11/24 11:30:12;;;;;;;45.47;20.60;;;;;;;;;;5041120;28;20188;-54
2021/11/24 11:32:39;;;;;;;40.33;20.00;;;;;;;;;;5030650;28;20178;-52
2021/11/24 11:35:06;;;;;;;37.90;18.90;;;;;;;;;;5020127;28;20706;-53
2021/11/24 11:37:33;;;;;;;38.10;19.37;;;;;;;;;;5014860;28;20551;-54
2021/11/24 11:39:59;;;;;;;39.63;19.30;;;;;;;;;;5004219;28;20185;-53
2021/11/24 11:42:25;;;;;;;33.73;18.37;;;;;;;;;;5025248;28;20201;-52
2021/11/24 11:44:52;;;;;;;40.07;19.93;;;;;;;;;;5010904;28;20177;-53
2021/11/24 11:47:38;;;;;;;37.70;20.03;;;;;;;;;;5009171;28;20277;-54
2021/11/24 11:50:05;;;;;;;39.73;19.10;;;;;;;;;;5028702;28;20178;-53
2021/11/24 11:52:32;;;;;;;36.40;19.17;;;;;;;;;;5029067;28;20293;-53
2021/11/24 11:55:16;;;;;;;32.33;18.07;;;;;;;;;;4998796;28;20198;-54
2021/11/24 11:57:45;;;;;;;36.97;18.40;;;;;;;;;;5007853;28;20177;-53
2021/11/24 12:00:12;;;;;;;39.03;19.43;;;;;;;;;;5018705;28;20189;-53
2021/11/24 12:02:58;;;;;;;36.03;20.40;;;;;;;;;;5007344;28;20237;-53
2021/11/24 12:05:24;;;;;;;37.23;19.13;;;;;;;;;;5010140;28;20174;-53
2021/11/24 12:08:07;;;;;;;34.07;19.20;;;;;;;;;;5028920;28;20178;-53
2021/11/24 12:10:52;;;;;;;35.03;18.47;;;;;;;;;;5028583;28;20170;-53
2021/11/24 12:13:28;;;;;;;36.63;19.60;;;;;;;;;;5020907;28;20193;-54
2021/11/24 12:15:55;;;;;;;40.33;20.13;;;;;;;;;;5005757;28;20178;-54
2021/11/24 12:18:21;;;;;;;31.80;17.80;;;;;;;;;;5014628;28;20194;-54
2021/11/24 12:20:48;;;;;;;33.20;17.77;;;;;;;;;;5010582;28;20193;-55
2021/11/24 12:23:16;;;;;;;28.40;17.13;;;;;;;;;;5028683;28;20690;-54
2021/11/24 12:25:43;;;;;;;33.00;18.50;;;;;;;;;;5009604;28;20196;-53
2021/11/24 12:28:12;;;;;;;34.30;17.57;;;;;;;;;;5023595;28;20182;-54
2021/11/24 12:30:52;;;;;;;34.20;17.77;;;;;;;;;;4996465;28;20233;-55
2021/11/24 12:33:23;;;;;;;32.13;17.40;;;;;;;;;;5010260;28;20216;-54
2021/11/24 12:35:49;;;;;;;32.33;19.10;;;;;;;;;;5003845;28;20190;-54
2021/11/24 12:38:17;;;;;;;37.03;19.00;;;;;;;;;;5026641;28;20190;-54
2021/11/24 12:40:44;;;;;;;27.60;16.23;;;;;;;;;;5005446;28;20224;-54
2021/11/24 12:43:18;;;;;;;25.47;15.70;;;;;;;;;;5018191;28;20569;-54
2021/11/24 12:45:59;;;;;;;26.43;14.77;;;;;;;;;;5027395;28;20177;-54
2021/11/24 12:48:48;;;;;;;29.47;15.57;;;;;;;;;;5028339;28;20798;-54
2021/11/24 12:51:26;;;;;;;22.87;14.23;;;;;;;;;;5027685;28;20217;-54
2021/11/24 12:54:00;;;;;;;33.43;15.47;;;;;;;;;;5008408;28;20719;-55
2021/11/24 12:56:30;;;;;;;23.93;13.70;;;;;;;;;;5027871;28;20212;-54
2021/11/24 12:58:58;;;;;;;23.50;14.33;;;;;;;;;;5028064;28;20249;-54
2021/11/24 13:01:26;;;;;;;22.63;14.50;;;;;;;;;;5003170;28;20192;-54
2021/11/24 13:03:57;;;;;;;18.77;12.33;;;;;;;;;;5025203;28;20683;-54
2021/11/24 13:06:23;;;;;;;22.33;12.87;;;;;;;;;;5026686;28;21825;-54
2021/11/24 13:09:03;;;;;;;20.20;12.10;;;;;;;;;;5022454;28;20265;-54
2021/11/24 13:11:29;;;;;;;20.67;12.37;;;;;;;;;;5027094;28;20535;-55
2021/11/24 13:13:57;;;;;;;18.20;11.37;;;;;;;;;;5025747;28;20210;-53
2021/11/24 13:16:24;;;;;;;23.10;12.23;;;;;;;;;;5007807;28;20691;-53
2021/11/24 13:18:51;;;;;;;16.30;11.43;;;;;;;;;;5026455;28;20173;-54
2021/11/24 13:21:17;;;;;;;20.43;12.43;;;;;;;;;;4998882;28;20190;-53
2021/11/24 13:23:43;;;;;;;15.47;10.90;;;;;;;;;;5022214;28;20241;-55
2021/11/24 13:26:10;;;;;;;16.07;10.90;;;;;;;;;;5006551;28;20179;-54
2021/11/24 13:28:36;;;;;;;17.47;10.60;;;;;;;;;;5018182;28;20539;-54
2021/11/24 13:31:02;;;;;;;17.73;11.83;;;;;;;;;;5011120;28;20686;-53
2021/11/24 13:33:30;;;;;;;14.40;10.40;;;;;;;;;;5026056;28;20198;-53
2021/11/24 13:35:58;;;;;;;17.17;10.47;;;;;;;;;;5024698;28;20269;-53
2021/11/24 13:38:26;;;;;;;16.47;9.70;;;;;;;;;;5030917;28;20567;-54
2021/11/24 13:40:56;;;;;;;16.07;10.63;;;;;;;;;;5009110;28;20697;-53
2021/11/24 13:43:36;;;;;;;12.83;8.67;;;;;;;;;;5022006;28;20699;-54
2021/11/24 13:46:17;;;;;;;15.13;9.97;;;;;;;;;;5027850;28;20235;-54
2021/11/24 13:48:45;;;;;;;12.13;8.63;;;;;;;;;;5030739;28;20222;-52
2021/11/24 13:51:14;;;;;;;15.90;9.40;;;;;;;;;;5013344;28;20628;-52
2021/11/24 13:53:41;;;;;;;14.50;10.30;;;;;;;;;;5012818;28;20586;-55
2021/11/24 13:56:12;;;;;;;15.30;9.63;;;;;;;;;;5029713;28;20214;-54
2021/11/24 13:58:40;;;;;;;15.40;9.43;;;;;;;;;;5030712;28;20178;-54
2021/11/24 14:01:16;;;;;;;16.23;9.87;;;;;;;;;;5027363;28;20178;-54
2021/11/24 14:03:50;;;;;;;13.83;8.70;;;;;;;;;;5033513;28;20232;-54
2021/11/24 14:06:35;;;;;;;12.10;8.47;;;;;;;;;;5027329;28;20174;-54
2021/11/24 14:09:15;;;;;;;13.43;8.73;;;;;;;;;;5029195;28;20558;-54
2021/11/24 14:11:56;;;;;;;12.27;7.97;;;;;;;;;;5011954;28;20261;-54
2021/11/24 14:14:23;;;;;;;13.73;8.57;;;;;;;;;;5003273;28;20190;-54
2021/11/24 14:16:54;;;;;;;11.63;7.63;;;;;;;;;;5001515;28;20257;-54
2021/11/24 14:19:20;;;;;;;11.40;8.77;;;;;;;;;;5028527;28;20185;-54
2021/11/24 14:21:49;;;;;;;10.33;7.90;;;;;;;;;;5025678;28;20205;-54
2021/11/24 14:24:15;;;;;;;13.97;8.60;;;;;;;;;;5023344;28;20633;-54